Time;durP1;ratioP1;P1;durP2;ratioP2;P2;SDS_P1;SDS_P2;PMS_P1;PMS_P2;Temp;Humidity;BMP_temperature;BMP_pressure;BME280_temperature;BME280_humidity;BME280_pressure;Samples;Min_cycle;Max_cycle;Signal;HPM_P1;HPM_P2
2021/10/17 00:01:29;;;;;;;71.53;41.90;;;10.50;99.90;;;;;;5053626;28;20531;-50
2021/10/17 00:03:54;;;;;;;73.43;45.03;;;10.50;99.90;;;;;;5066886;28;20028;-50
2021/10/17 00:06:27;;;;;;;34.45;24.73;;;10.50;99.90;;;;;;5065183;28;20049;-50
2021/10/17 00:08:53;;;;;;;28.10;21.40;;;10.50;99.90;;;;;;5067869;28;20478;-51
2021/10/17 00:11:19;;;;;;;29.23;19.77;;;10.50;99.90;;;;;;5083195;28;20060;-50
2021/10/17 00:13:45;;;;;;;31.33;20.58;;;10.40;99.90;;;;;;5075112;28;20029;-51
2021/10/17 00:16:10;;;;;;;30.55;21.15;;;10.40;99.90;;;;;;5087111;28;20337;-51
2021/10/17 00:18:36;;;;;;;27.55;20.23;;;10.40;99.90;;;;;;5087442;28;20051;-50
2021/10/17 00:21:02;;;;;;;27.88;18.27;;;10.30;99.90;;;;;;5074775;28;20047;-51
2021/10/17 00:23:28;;;;;;;26.77;18.30;;;10.20;99.90;;;;;;5065761;28;20507;-51
2021/10/17 00:25:54;;;;;;;28.02;18.77;;;10.30;99.90;;;;;;5074720;28;20465;-51
2021/10/17 00:28:19;;;;;;;27.30;18.90;;;10.30;99.90;;;;;;5056388;28;20036;-50
2021/10/17 00:30:45;;;;;;;27.65;18.50;;;10.30;99.90;;;;;;5072902;28;20032;-50
2021/10/17 00:33:11;;;;;;;23.05;17.60;;;10.30;99.90;;;;;;5075113;28;20039;-50
2021/10/17 00:35:37;;;;;;;23.73;17.13;;;10.30;99.90;;;;;;5075184;28;20380;-51
2021/10/17 00:38:03;;;;;;;20.67;16.23;;;10.20;99.90;;;;;;5074273;28;20093;-50
2021/10/17 00:40:29;;;;;;;20.88;15.93;;;10.20;99.90;;;;;;5074421;28;20489;-51
2021/10/17 00:42:57;;;;;;;23.13;17.23;;;10.20;99.90;;;;;;5071965;28;20037;-50
2021/10/17 00:45:29;;;;;;;24.55;17.33;;;10.20;99.90;;;;;;5055715;28;20047;-51
2021/10/17 00:47:56;;;;;;;26.23;19.30;;;10.20;99.90;;;;;;5073348;28;20044;-51
2021/10/17 00:50:22;;;;;;;22.00;17.90;;;10.20;99.90;;;;;;5075573;28;20428;-51
2021/10/17 00:52:48;;;;;;;24.83;17.50;;;10.20;99.90;;;;;;5020638;28;20211;-51
2021/10/17 00:55:17;;;;;;;22.98;16.65;;;10.20;99.90;;;;;;5074296;28;20040;-52
2021/10/17 00:57:44;;;;;;;24.38;17.20;;;10.20;99.90;;;;;;5075273;28;20030;-51
2021/10/17 01:00:12;;;;;;;21.95;17.08;;;10.10;99.90;;;;;;5072873;28;20052;-50
2021/10/17 01:02:38;;;;;;;20.30;15.82;;;10.10;99.90;;;;;;5054463;28;20507;-51
2021/10/17 01:05:05;;;;;;;25.73;19.60;;;10.10;99.90;;;;;;5074373;28;20051;-50
2021/10/17 01:07:31;;;;;;;32.00;20.95;;;10.00;99.90;;;;;;5071025;28;20044;-50
2021/10/17 01:09:57;;;;;;;32.30;22.30;;;10.00;99.90;;;;;;5074204;28;20096;-51
2021/10/17 01:12:22;;;;;;;29.05;21.85;;;10.00;99.90;;;;;;5074546;28;20103;-50
2021/10/17 01:14:48;;;;;;;27.27;19.77;;;9.90;99.90;;;;;;5068571;28;20067;-49
2021/10/17 01:17:14;;;;;;;26.83;19.98;;;9.90;99.90;;;;;;5074396;28;20037;-50
2021/10/17 01:19:46;;;;;;;25.83;19.15;;;9.90;99.90;;;;;;5073763;28;20449;-51
2021/10/17 01:22:12;;;;;;;27.77;19.95;;;9.90;99.90;;;;;;5031992;28;20037;-50
2021/10/17 01:24:38;;;;;;;31.05;20.50;;;9.90;99.90;;;;;;5073384;28;20034;-50
2021/10/17 01:27:04;;;;;;;25.98;18.83;;;9.90;99.90;;;;;;5074344;28;20032;-51
2021/10/17 01:29:30;;;;;;;27.38;18.10;;;9.90;99.90;;;;;;5074023;28;20025;-50
2021/10/17 01:31:56;;;;;;;25.55;18.08;;;9.80;99.90;;;;;;5072025;28;20502;-49
2021/10/17 01:34:24;;;;;;;24.38;17.50;;;9.90;99.90;;;;;;5055976;28;20037;-50
2021/10/17 01:36:51;;;;;;;26.55;18.30;;;9.90;99.90;;;;;;5073438;28;20043;-49
2021/10/17 01:39:20;;;;;;;24.17;16.95;;;9.80;99.90;;;;;;5073829;28;20024;-49
2021/10/17 01:41:46;;;;;;;30.45;18.15;;;9.80;99.90;;;;;;5053633;28;20093;-51
2021/10/17 01:44:16;;;;;;;22.80;17.02;;;9.80;99.90;;;;;;5073050;28;20028;-50
2021/10/17 01:46:42;;;;;;;24.98;17.25;;;9.70;99.90;;;;;;5073823;28;20478;-49
2021/10/17 01:49:14;;;;;;;25.98;17.50;;;9.70;99.90;;;;;;5073455;28;20380;-51
2021/10/17 01:51:40;;;;;;;29.38;18.67;;;9.70;99.90;;;;;;5071868;28;20492;-51
2021/10/17 01:54:06;;;;;;;24.00;17.83;;;9.70;99.90;;;;;;5074019;28;20555;-53
2021/10/17 01:56:35;;;;;;;26.00;17.45;;;9.70;99.90;;;;;;5073639;28;20063;-50
2021/10/17 01:59:02;;;;;;;24.52;16.27;;;9.80;99.90;;;;;;5073178;28;20380;-52
2021/10/17 02:01:28;;;;;;;20.67;16.33;;;9.70;99.90;;;;;;5073288;28;20028;-52
2021/10/17 02:03:54;;;;;;;23.75;15.50;;;9.70;99.90;;;;;;5071494;28;20480;-50
2021/10/17 02:06:20;;;;;;;22.25;15.85;;;9.60;99.90;;;;;;5073261;28;20131;-51
2021/10/17 02:08:46;;;;;;;20.20;14.82;;;9.50;99.90;;;;;;5072799;28;20135;-49
2021/10/17 02:11:12;;;;;;;20.98;14.20;;;9.10;99.90;;;;;;5073215;28;20020;-51
2021/10/17 02:13:39;;;;;;;21.60;15.05;;;8.90;99.90;;;;;;5072482;28;20024;-50
2021/10/17 02:16:05;;;;;;;19.33;13.75;;;9.10;99.90;;;;;;5040276;28;20028;-52
2021/10/17 02:18:31;;;;;;;18.13;14.18;;;9.20;99.90;;;;;;5073039;28;20361;-49
2021/10/17 02:20:57;;;;;;;19.35;13.68;;;9.10;99.90;;;;;;5072245;28;20035;-50
2021/10/17 02:23:23;;;;;;;18.67;14.80;;;9.10;99.90;;;;;;5072578;28;20032;-52
2021/10/17 02:25:49;;;;;;;19.92;14.27;;;9.20;99.90;;;;;;5073802;28;20032;-51
2021/10/17 02:28:15;;;;;;;18.27;14.38;;;8.70;99.90;;;;;;5072514;28;20029;-52
2021/10/17 02:30:40;;;;;;;22.13;14.90;;;8.70;99.90;;;;;;5072758;28;20100;-49
2021/10/17 02:33:06;;;;;;;22.90;15.50;;;8.20;99.90;;;;;;5038051;28;20036;-49
2021/10/17 02:35:32;;;;;;;20.73;15.13;;;8.20;99.90;;;;;;5072407;28;20115;-49
2021/10/17 02:37:58;;;;;;;19.67;15.10;;;8.40;99.90;;;;;;5072629;28;20051;-51
2021/10/17 02:40:24;;;;;;;23.15;16.15;;;8.50;99.90;;;;;;5037866;28;20045;-50
2021/10/17 02:42:50;;;;;;;20.25;15.82;;;8.40;99.90;;;;;;5073663;28;20029;-50
2021/10/17 02:45:16;;;;;;;21.23;16.08;;;8.50;99.90;;;;;;5072544;28;20043;-49
2021/10/17 02:47:41;;;;;;;19.23;15.07;;;8.40;99.90;;;;;;5072474;28;20047;-49
2021/10/17 02:50:08;;;;;;;17.88;13.90;;;8.40;99.90;;;;;;5051809;28;20672;-49
2021/10/17 02:52:34;;;;;;;24.27;15.57;;;8.50;99.90;;;;;;5020783;28;20146;-50
2021/10/17 02:55:00;;;;;;;22.92;15.15;;;8.30;99.90;;;;;;5072218;28;20131;-49
2021/10/17 02:57:25;;;;;;;21.83;14.50;;;8.20;99.90;;;;;;5072169;28;20036;-49
2021/10/17 02:59:51;;;;;;;19.00;14.50;;;8.50;99.90;;;;;;5069972;28;20484;-50
2021/10/17 03:02:17;;;;;;;19.88;14.07;;;8.70;99.90;;;;;;5072077;28;20024;-50
2021/10/17 03:04:43;;;;;;;20.55;14.15;;;8.80;99.90;;;;;;5072959;28;20126;-50
2021/10/17 03:07:09;;;;;;;23.88;15.00;;;8.90;99.90;;;;;;5087239;28;20435;-51
2021/10/17 03:09:34;;;;;;;19.33;13.68;;;9.00;99.90;;;;;;5072432;28;20376;-50
2021/10/17 03:12:00;;;;;;;19.00;14.25;;;9.00;99.90;;;;;;5072028;28;20544;-49
2021/10/17 03:14:26;;;;;;;21.60;14.52;;;9.00;99.90;;;;;;5070291;28;20051;-50
2021/10/17 03:16:52;;;;;;;21.30;14.15;;;9.10;99.90;;;;;;5073083;28;20021;-50
2021/10/17 03:19:17;;;;;;;22.52;15.40;;;9.10;99.90;;;;;;5072222;28;20515;-51
2021/10/17 03:21:46;;;;;;;17.25;12.68;;;9.10;99.90;;;;;;5071839;28;20023;-50
2021/10/17 03:24:12;;;;;;;19.90;13.57;;;9.10;99.90;;;;;;5087203;28;20036;-50
2021/10/17 03:26:38;;;;;;;24.52;14.40;;;9.10;99.90;;;;;;5071639;28;20020;-50
2021/10/17 03:29:04;;;;;;;22.80;16.17;;;9.10;99.90;;;;;;5072338;28;20025;-49
2021/10/17 03:31:32;;;;;;;23.75;16.85;;;9.20;99.90;;;;;;5072166;28;20021;-50
2021/10/17 03:33:59;;;;;;;23.63;15.45;;;9.30;99.90;;;;;;5071855;28;20036;-50
2021/10/17 03:36:27;;;;;;;21.70;15.32;;;9.30;99.90;;;;;;5053357;28;20044;-49
2021/10/17 03:38:53;;;;;;;21.92;14.50;;;9.30;99.90;;;;;;5072144;28;20111;-49
2021/10/17 03:41:19;;;;;;;28.73;16.85;;;9.30;99.90;;;;;;5072010;28;20103;-49
2021/10/17 03:43:45;;;;;;;32.42;20.55;;;9.40;99.90;;;;;;5071536;28;20108;-50
2021/10/17 03:46:10;;;;;;;46.60;29.55;;;9.40;99.90;;;;;;5074783;28;20500;-50
2021/10/17 03:48:36;;;;;;;43.47;23.67;;;9.50;99.90;;;;;;5075320;28;20052;-50
2021/10/17 03:51:08;;;;;;;30.63;19.20;;;9.50;99.90;;;;;;5073626;28;20047;-49
2021/10/17 03:53:37;;;;;;;25.25;18.00;;;9.60;99.90;;;;;;5075733;28;20028;-49
2021/10/17 03:56:03;;;;;;;30.23;19.10;;;9.60;99.90;;;;;;5056320;28;20052;-49
2021/10/17 03:58:29;;;;;;;27.83;19.98;;;9.60;99.90;;;;;;5075746;28;20543;-50
2021/10/17 04:00:55;;;;;;;27.20;18.45;;;9.70;99.90;;;;;;5075313;28;20115;-50
2021/10/17 04:03:20;;;;;;;28.23;18.85;;;9.70;99.90;;;;;;5076472;28;20024;-49
2021/10/17 04:05:46;;;;;;;27.95;19.40;;;9.80;99.90;;;;;;5075138;28;20052;-49
2021/10/17 04:08:12;;;;;;;29.95;19.40;;;9.80;99.90;;;;;;5073571;28;20509;-49
2021/10/17 04:10:38;;;;;;;29.42;20.55;;;9.80;99.90;;;;;;5074986;28;20120;-50
2021/10/17 04:13:04;;;;;;;27.50;18.17;;;9.80;99.90;;;;;;5075603;28;20028;-49
2021/10/17 04:15:36;;;;;;;26.70;17.88;;;9.80;99.90;;;;;;5075206;28;20021;-49
2021/10/17 04:18:05;;;;;;;26.60;18.10;;;9.80;99.90;;;;;;5075494;28;20119;-49
2021/10/17 04:20:30;;;;;;;27.30;19.33;;;9.80;99.90;;;;;;5073443;28;20078;-50
2021/10/17 04:22:57;;;;;;;28.00;19.63;;;9.80;99.90;;;;;;5088450;28;20040;-50
2021/10/17 04:25:23;;;;;;;25.58;19.85;;;9.80;99.90;;;;;;5073980;28;20107;-50
2021/10/17 04:27:49;;;;;;;32.70;20.67;;;9.80;99.90;;;;;;5072351;28;20430;-50
2021/10/17 04:30:15;;;;;;;31.05;19.80;;;9.80;99.90;;;;;;5074000;28;20154;-51
2021/10/17 04:32:41;;;;;;;26.90;18.45;;;9.80;99.90;;;;;;5073545;28;20158;-51
2021/10/17 04:35:08;;;;;;;25.42;18.08;;;9.80;99.90;;;;;;5071210;28;20096;-50
2021/10/17 04:37:35;;;;;;;25.88;18.48;;;9.80;99.90;;;;;;5073406;28;20072;-50
2021/10/17 04:40:06;;;;;;;29.95;19.50;;;9.80;99.90;;;;;;5073755;28;20503;-51
2021/10/17 04:42:32;;;;;;;33.05;19.35;;;9.70;99.90;;;;;;5073721;28;20086;-50
2021/10/17 04:44:59;;;;;;;31.30;21.52;;;9.70;99.90;;;;;;5073933;28;20476;-50
2021/10/17 04:47:25;;;;;;;28.15;20.70;;;9.60;99.90;;;;;;5074531;28;20036;-49
2021/10/17 04:49:50;;;;;;;30.15;19.35;;;9.70;99.90;;;;;;5074968;28;20031;-50
2021/10/17 04:52:16;;;;;;;29.98;20.08;;;9.70;99.90;;;;;;5073674;28;20542;-51
2021/10/17 04:54:42;;;;;;;30.73;21.60;;;9.70;99.90;;;;;;5074792;28;20028;-50
2021/10/17 04:57:08;;;;;;;28.80;19.90;;;9.70;99.90;;;;;;5073515;28;20063;-50
2021/10/17 04:59:34;;;;;;;30.98;20.30;;;9.70;99.90;;;;;;5074954;28;20476;-50
2021/10/17 05:02:00;;;;;;;31.50;20.83;;;9.80;99.90;;;;;;5074047;28;20037;-49
2021/10/17 05:04:26;;;;;;;32.45;20.75;;;9.70;99.90;;;;;;5056242;28;20058;-50
2021/10/17 05:06:52;;;;;;;33.40;21.17;;;9.70;99.90;;;;;;5074752;28;20041;-51
2021/10/17 05:09:17;;;;;;;35.33;21.10;;;9.70;99.90;;;;;;5072426;28;20097;-50
2021/10/17 05:11:43;;;;;;;33.95;22.67;;;9.70;99.90;;;;;;5075071;28;20059;-50
2021/10/17 05:14:09;;;;;;;36.55;22.25;;;9.70;99.90;;;;;;5089097;28;20037;-50
2021/10/17 05:16:34;;;;;;;36.42;23.60;;;9.70;99.90;;;;;;5055635;28;20055;-50
2021/10/17 05:19:01;;;;;;;29.88;20.55;;;9.70;99.90;;;;;;5038688;28;20037;-49
2021/10/17 05:21:28;;;;;;;30.20;20.15;;;9.70;99.90;;;;;;5073831;28;20059;-51
2021/10/17 05:23:57;;;;;;;34.53;21.33;;;9.60;99.90;;;;;;5074812;28;20452;-50
2021/10/17 05:26:22;;;;;;;29.92;20.52;;;9.60;99.90;;;;;;5038829;28;20388;-50
2021/10/17 05:28:48;;;;;;;31.70;21.65;;;9.60;99.90;;;;;;5074081;28;20028;-50
2021/10/17 05:31:14;;;;;;;37.42;22.00;;;9.70;99.90;;;;;;5074001;28;20107;-50
2021/10/17 05:33:40;;;;;;;31.17;21.20;;;9.80;99.90;;;;;;5073856;28;20048;-51
2021/10/17 05:36:07;;;;;;;32.58;21.65;;;10.30;99.90;;;;;;5074379;28;20028;-50
2021/10/17 05:38:33;;;;;;;24.30;19.15;;;11.30;99.90;;;;;;5071527;28;20048;-50
2021/10/17 05:40:58;;;;;;;27.65;18.73;;;12.30;99.90;;;;;;5074120;28;20476;-50
2021/10/17 05:43:24;;;;;;;29.58;19.80;;;13.40;99.90;;;;;;5073742;28;20025;-50
2021/10/17 05:45:50;;;;;;;28.98;18.88;;;14.40;99.90;;;;;;5074532;28;20472;-50
2021/10/17 05:48:16;;;;;;;23.00;17.70;;;15.30;99.90;;;;;;5088352;28;20047;-50
2021/10/17 05:50:41;;;;;;;24.65;18.00;;;16.10;99.90;;;;;;5038331;28;20044;-51
2021/10/17 05:53:07;;;;;;;27.30;16.98;;;17.00;99.90;;;;;;5068969;28;20036;-50
2021/10/17 05:55:34;;;;;;;28.27;21.05;;;17.70;99.90;;;;;;5073654;28;20037;-50
2021/10/17 05:57:59;;;;;;;56.58;41.67;;;18.10;99.90;;;;;;5073802;28;20523;-50
2021/10/17 06:00:25;;;;;;;23.45;17.35;;;18.30;99.90;;;;;;5073072;28;20107;-52
2021/10/17 06:02:51;;;;;;;23.20;17.40;;;18.80;99.90;;;;;;5072760;28;20039;-50
2021/10/17 06:05:17;;;;;;;43.13;26.17;;;19.40;99.90;;;;;;5088864;28;20080;-51
2021/10/17 06:07:43;;;;;;;32.50;21.67;;;19.70;99.90;;;;;;5072722;28;20025;-50
2021/10/17 06:10:12;;;;;;;32.35;20.65;;;19.90;99.90;;;;;;5073326;28;20036;-50
2021/10/17 06:12:40;;;;;;;37.90;22.55;;;20.60;99.90;;;;;;5073661;28;20138;-50
2021/10/17 06:15:07;;;;;;;26.63;17.20;;;21.40;99.90;;;;;;5072804;28;20117;-50
2021/10/17 06:17:33;;;;;;;26.23;19.23;;;20.50;99.90;;;;;;5054287;28;20051;-50
2021/10/17 06:19:59;;;;;;;23.88;18.55;;;19.10;99.90;;;;;;5072812;28;20056;-51
2021/10/17 06:22:25;;;;;;;25.15;18.70;;;19.00;99.90;;;;;;5053616;28;20075;-50
2021/10/17 06:24:51;;;;;;;21.20;17.10;;;19.20;99.90;;;;;;5072562;28;20428;-50
2021/10/17 06:27:17;;;;;;;31.10;23.60;;;19.50;99.90;;;;;;5070174;28;20033;-51
2021/10/17 06:29:43;;;;;;;27.35;23.42;;;20.50;99.90;;;;;;5071103;28;20097;-50
2021/10/17 06:32:09;;;;;;;23.88;18.98;;;20.30;99.90;;;;;;5071609;28;20029;-50
2021/10/17 06:34:35;;;;;;;26.50;20.02;;;21.30;99.90;;;;;;5069212;28;20048;-50
2021/10/17 06:37:01;;;;;;;21.42;17.48;;;21.00;99.90;;;;;;5069122;28;20047;-50
2021/10/17 06:39:27;;;;;;;23.33;17.88;;;21.60;99.90;;;;;;5033424;28;20068;-51
2021/10/17 06:41:53;;;;;;;25.27;17.80;;;22.00;99.80;;;;;;5018922;28;20422;-52
2021/10/17 06:44:19;;;;;;;21.90;17.85;;;22.10;99.90;;;;;;5067880;28;20048;-50
2021/10/17 06:46:46;;;;;;;22.80;17.83;;;;;;;;;;5068599;28;20039;-50
2021/10/17 06:49:11;;;;;;;22.23;17.27;;;23.70;97.80;;;;;;5068871;28;20066;-50
2021/10/17 06:51:37;;;;;;;25.90;17.17;;;23.60;96.60;;;;;;5069059;28;20063;-51
2021/10/17 06:54:03;;;;;;;22.50;17.38;;;22.60;95.90;;;;;;5069408;28;20044;-49
2021/10/17 06:56:29;;;;;;;19.52;15.02;;;22.00;96.50;;;;;;5067933;28;20031;-48
2021/10/17 06:58:55;;;;;;;24.48;19.45;;;20.90;97.30;;;;;;5067747;28;20036;-48
2021/10/17 07:01:21;;;;;;;23.60;18.92;;;20.70;98.90;;;;;;5067847;28;20058;-48
2021/10/17 07:03:46;;;;;;;23.38;18.60;;;20.60;99.40;;;;;;5067139;28;20035;-50
2021/10/17 07:06:14;;;;;;;57.65;43.47;;;20.10;99.80;;;;;;5046849;28;20052;-51
2021/10/17 07:08:39;;;;;;;56.85;38.80;;;21.10;99.50;;;;;;5087134;28;20058;-51
2021/10/17 07:11:05;;;;;;;37.92;26.58;;;22.30;98.80;;;;;;5086956;28;20617;-48
2021/10/17 07:13:31;;;;;;;32.65;23.83;;;21.30;98.60;;;;;;5087505;28;20117;-48
2021/10/17 07:15:57;;;;;;;24.48;16.67;;;22.20;97.70;;;;;;5087529;28;20054;-49
2021/10/17 07:18:23;;;;;;;20.77;15.43;;;22.10;97.20;;;;;;5086071;28;20134;-49
2021/10/17 07:20:50;;;;;;;19.15;15.85;;;21.80;97.30;;;;;;5086343;28;20529;-48
2021/10/17 07:23:15;;;;;;;16.45;14.65;;;21.70;97.90;;;;;;5089322;28;20123;-48
2021/10/17 07:25:42;;;;;;;19.75;14.77;;;22.60;97.60;;;;;;5085466;28;20127;-51
2021/10/17 07:28:08;;;;;;;19.80;14.65;;;;;;;;;;5071123;28;20047;-49
2021/10/17 07:30:34;;;;;;;16.23;13.95;;;;;;;;;;5089828;28;20093;-48
2021/10/17 07:33:00;;;;;;;17.77;15.20;;;24.70;93.30;;;;;;5056263;28;20044;-52
2021/10/17 07:35:25;;;;;;;20.60;15.20;;;24.90;94.00;;;;;;5090457;28;20388;-51
2021/10/17 07:37:51;;;;;;;18.20;15.02;;;24.10;93.60;;;;;;5089116;28;20459;-52
2021/10/17 07:40:17;;;;;;;17.50;15.13;;;23.90;94.40;;;;;;5051975;28;20438;-51
2021/10/17 07:42:43;;;;;;;17.33;15.10;;;24.40;93.80;;;;;;5070892;28;20032;-52
2021/10/17 07:45:09;;;;;;;19.23;15.70;;;24.50;93.20;;;;;;5085427;28;20041;-52
2021/10/17 07:47:36;;;;;;;19.00;15.40;;;24.30;92.90;;;;;;5036324;28;20076;-52
2021/10/17 07:50:04;;;;;;;15.30;13.52;;;24.80;92.50;;;;;;5069793;28;20032;-52
2021/10/17 07:52:29;;;;;;;19.40;14.77;;;25.30;91.60;;;;;;5035898;28;20499;-52
2021/10/17 07:54:55;;;;;;;16.27;14.43;;;25.10;91.20;;;;;;5070413;28;20029;-52
2021/10/17 07:57:21;;;;;;;18.42;14.73;;;24.90;91.00;;;;;;5068960;28;20048;-52
2021/10/17 07:59:47;;;;;;;19.63;15.00;;;25.20;90.90;;;;;;5071439;28;20032;-52
2021/10/17 08:02:12;;;;;;;28.30;19.65;;;23.80;91.20;;;;;;5071968;28;20086;-52
2021/10/17 08:04:40;;;;;;;16.38;13.73;;;23.60;91.50;;;;;;5071486;28;20029;-53
2021/10/17 08:07:06;;;;;;;17.17;15.38;;;22.60;92.10;;;;;;5071352;28;20032;-52
2021/10/17 08:09:32;;;;;;;19.77;16.17;;;23.60;92.20;;;;;;5065743;28;20083;-52
2021/10/17 08:11:58;;;;;;;31.83;25.63;;;23.40;92.30;;;;;;5071330;28;20371;-52
2021/10/17 08:14:24;;;;;;;18.42;15.95;;;24.20;91.80;;;;;;5080986;28;20032;-52
2021/10/17 08:16:51;;;;;;;25.70;18.92;;;24.80;91.70;;;;;;5068135;28;20044;-53
2021/10/17 08:19:17;;;;;;;17.23;14.07;;;25.40;91.50;;;;;;5053868;28;20071;-52
2021/10/17 08:21:43;;;;;;;18.73;15.27;;;24.20;91.10;;;;;;5071026;28;20040;-54
2021/10/17 08:24:09;;;;;;;16.10;14.27;;;25.10;91.10;;;;;;5062932;28;20049;-53
2021/10/17 08:26:34;;;;;;;25.70;19.45;;;24.00;90.90;;;;;;5066184;28;20040;-52
2021/10/17 08:29:01;;;;;;;15.85;14.13;;;;;;;;;;5070423;28;20434;-53
2021/10/17 08:31:26;;;;;;;21.67;16.50;;;24.80;89.20;;;;;;5069910;28;20029;-52
2021/10/17 08:33:52;;;;;;;19.20;14.60;;;24.60;90.20;;;;;;5075171;28;20376;-53
2021/10/17 08:36:18;;;;;;;19.90;15.25;;;24.90;90.00;;;;;;5073195;28;20025;-51
2021/10/17 08:38:44;;;;;;;21.52;17.77;;;25.10;90.40;;;;;;5054237;28;20076;-51
2021/10/17 08:41:10;;;;;;;19.98;15.45;;;;;;;;;;5088207;28;20123;-50
2021/10/17 08:43:36;;;;;;;19.63;15.45;;;25.30;89.60;;;;;;5066296;28;20072;-56
2021/10/17 08:46:02;;;;;;;22.10;19.08;;;24.90;94.00;;;;;;5085512;28;20507;-55
2021/10/17 08:48:31;;;;;;;20.02;17.90;;;23.90;89.80;;;;;;5037046;28;20033;-55
2021/10/17 08:50:58;;;;;;;22.23;17.48;;;24.00;90.50;;;;;;5069635;28;20055;-55
2021/10/17 08:53:25;;;;;;;18.67;16.33;;;24.50;90.30;;;;;;5071488;28;20124;-55
2021/10/17 08:55:50;;;;;;;23.45;18.38;;;25.10;89.90;;;;;;5070875;28;20031;-55
2021/10/17 08:58:16;;;;;;;19.58;17.50;;;26.10;89.00;;;;;;5070809;28;20056;-56
2021/10/17 09:00:42;;;;;;;16.58;13.77;;;;;;;;;;5070323;28;20056;-55
2021/10/17 09:03:08;;;;;;;15.13;13.32;;;;;;;;;;5068875;28;20041;-55
2021/10/17 09:05:39;;;;;;;15.98;14.30;;;;;;;;;;5070335;28;20051;-55
2021/10/17 09:08:06;;;;;;;15.77;13.90;;;;;;;;;;5070981;28;20028;-55
2021/10/17 09:10:33;;;;;;;20.83;16.52;;;;;;;;;;5051861;28;20025;-55
2021/10/17 09:13:06;;;;;;;17.95;13.70;;;;;;;;;;5069430;28;20179;-55
2021/10/17 09:15:33;;;;;;;21.10;13.85;;;25.50;85.70;;;;;;5068754;28;20442;-55
2021/10/17 09:18:20;;;;;;;20.25;16.13;;;25.60;86.10;;;;;;5069880;28;20149;-55
2021/10/17 09:20:49;;;;;;;17.83;15.10;;;;;;;;;;5050255;28;20033;-55
2021/10/17 09:23:21;;;;;;;19.73;15.85;;;26.70;84.80;;;;;;5069514;28;20024;-55
2021/10/17 09:25:48;;;;;;;50.22;37.00;;;26.20;84.20;;;;;;5031612;28;20043;-55
2021/10/17 09:28:16;;;;;;;22.73;20.00;;;24.80;86.60;;;;;;5027983;28;20064;-55
2021/10/17 09:30:42;;;;;;;18.13;16.23;;;24.80;85.90;;;;;;5036750;28;20123;-55
2021/10/17 09:33:15;;;;;;;15.13;13.63;;;23.40;88.00;;;;;;5025116;28;20061;-54
2021/10/17 09:35:41;;;;;;;15.55;13.82;;;24.60;88.50;;;;;;5028564;28;20044;-55
2021/10/17 09:38:08;;;;;;;15.25;13.55;;;24.20;86.70;;;;;;4983054;28;20053;-54
2021/10/17 09:40:36;;;;;;;15.40;13.90;;;24.00;86.50;;;;;;5035490;28;20053;-54
2021/10/17 09:43:21;;;;;;;16.35;14.80;;;24.60;86.40;;;;;;5029914;28;20440;-55
2021/10/17 09:45:47;;;;;;;17.17;15.45;;;25.80;85.60;;;;;;5033350;28;20120;-54
2021/10/17 09:48:28;;;;;;;18.42;16.50;;;25.80;84.10;;;;;;5033230;28;20061;-54
2021/10/17 09:51:01;;;;;;;16.23;14.50;;;26.30;82.90;;;;;;5033633;28;20148;-54
2021/10/17 09:53:40;;;;;;;15.50;13.90;;;26.00;89.10;;;;;;5034299;28;20025;-55
2021/10/17 09:56:06;;;;;;;18.42;16.63;;;26.80;81.90;;;;;;5041795;28;20035;-54
2021/10/17 09:58:32;;;;;;;19.48;17.40;;;26.80;81.30;;;;;;5072167;28;20033;-55
2021/10/17 10:00:59;;;;;;;17.17;15.50;;;27.30;80.90;;;;;;5072108;28;20060;-54
2021/10/17 10:03:26;;;;;;;15.85;14.18;;;27.60;79.70;;;;;;5072402;28;20439;-54
2021/10/17 10:05:53;;;;;;;17.52;15.80;;;27.80;79.10;;;;;;5071314;28;20052;-54
2021/10/17 10:08:21;;;;;;;15.88;14.43;;;27.60;79.10;;;;;;5071730;28;20044;-55
2021/10/17 10:10:51;;;;;;;18.88;15.30;;;27.60;78.50;;;;;;5072627;28;20028;-54
2021/10/17 10:13:19;;;;;;;19.95;18.17;;;27.70;78.60;;;;;;5071660;28;20028;-54
2021/10/17 10:15:46;;;;;;;19.02;17.42;;;27.80;76.40;;;;;;5077428;28;20060;-55
2021/10/17 10:18:13;;;;;;;14.88;13.50;;;;;;;;;;5071618;28;20099;-54
2021/10/17 10:20:42;;;;;;;14.10;12.77;;;28.10;74.70;;;;;;5071883;28;20414;-54
2021/10/17 10:23:12;;;;;;;16.50;14.80;;;28.00;75.00;;;;;;5072108;28;20025;-54
2021/10/17 10:25:38;;;;;;;22.23;20.20;;;28.30;74.50;;;;;;5071643;28;20036;-54
2021/10/17 10:28:09;;;;;;;16.92;15.27;;;28.00;76.60;;;;;;5071494;28;20056;-55
2021/10/17 10:30:38;;;;;;;17.73;15.93;;;;;;;;;;5071525;28;20037;-54
2021/10/17 10:33:21;;;;;;;19.00;17.10;;;28.80;75.90;;;;;;5071298;28;20040;-54
2021/10/17 10:36:05;;;;;;;19.25;17.23;;;28.80;74.70;;;;;;5068827;28;20069;-54
2021/10/17 10:38:54;;;;;;;19.25;17.23;;;28.70;75.20;;;;;;5070856;28;20393;-54
2021/10/17 10:41:31;;;;;;;25.35;22.25;;;28.00;73.70;;;;;;5029265;28;20378;-54
2021/10/17 10:44:13;;;;;;;19.73;17.83;;;27.30;75.30;;;;;;5028839;28;20157;-54
2021/10/17 10:46:40;;;;;;;19.70;14.45;;;27.40;75.70;;;;;;5029326;28;20107;-54
2021/10/17 10:49:06;;;;;;;16.10;14.25;;;27.80;75.10;;;;;;5029124;28;20084;-55
2021/10/17 10:51:38;;;;;;;19.63;15.40;;;28.00;76.40;;;;;;5029293;28;20021;-54
2021/10/17 10:54:05;;;;;;;15.15;12.27;;;27.00;76.50;;;;;;5030097;28;20174;-55
2021/10/17 10:56:44;;;;;;;15.57;14.07;;;26.40;75.50;;;;;;5028581;28;20441;-54
2021/10/17 10:59:11;;;;;;;18.17;15.85;;;26.10;76.30;;;;;;5022085;28;20571;-54
2021/10/17 11:01:52;;;;;;;15.80;14.02;;;;;;;;;;5029221;28;20370;-55
2021/10/17 11:04:37;;;;;;;14.13;12.65;;;;;;;;;;5028101;28;20500;-54
2021/10/17 11:07:27;;;;;;;14.05;12.63;;;25.50;75.90;;;;;;4996361;28;20057;-54
2021/10/17 11:09:55;;;;;;;12.55;11.25;;;26.30;78.40;;;;;;5029323;28;20061;-54
2021/10/17 11:12:44;;;;;;;11.95;10.65;;;26.60;73.50;;;;;;5028703;28;20532;-54
2021/10/17 11:15:17;;;;;;;14.50;13.20;;;27.00;74.30;;;;;;5026102;28;20032;-54
2021/10/17 11:18:05;;;;;;;13.50;12.10;;;26.90;74.10;;;;;;5034824;28;20044;-54
2021/10/17 11:20:37;;;;;;;14.20;12.77;;;27.40;73.60;;;;;;5066383;28;20055;-54
2021/10/17 11:23:05;;;;;;;15.43;13.25;;;27.00;73.50;;;;;;5068581;28;20481;-56
2021/10/17 11:25:32;;;;;;;12.82;11.57;;;26.70;74.30;;;;;;5048130;28;20293;-55
2021/10/17 11:27:58;;;;;;;18.05;14.93;;;27.10;73.40;;;;;;5048851;28;20040;-56
2021/10/17 11:30:27;;;;;;;17.60;14.80;;;27.10;75.60;;;;;;5015065;28;20045;-55
2021/10/17 11:32:54;;;;;;;12.65;11.40;;;26.00;76.10;;;;;;5048287;28;20032;-56
2021/10/17 11:35:36;;;;;;;15.82;11.55;;;26.00;75.70;;;;;;5049056;28;20044;-56
2021/10/17 11:38:06;;;;;;;13.27;11.95;;;26.50;76.50;;;;;;5048180;28;21059;-56
2021/10/17 11:40:35;;;;;;;17.25;11.68;;;26.20;76.00;;;;;;5031476;28;20444;-55
2021/10/17 11:43:06;;;;;;;18.20;13.25;;;26.40;74.80;;;;;;5039287;28;20018;-55
2021/10/17 11:45:43;;;;;;;18.10;13.98;;;26.70;74.20;;;;;;5048819;28;20037;-55
2021/10/17 11:48:14;;;;;;;13.23;11.65;;;26.50;75.80;;;;;;5045963;28;20041;-55
2021/10/17 11:50:47;;;;;;;12.20;10.80;;;26.40;74.90;;;;;;5047763;28;20037;-55
2021/10/17 11:53:15;;;;;;;16.00;12.80;;;25.80;76.10;;;;;;5048034;28;20025;-55
2021/10/17 11:55:43;;;;;;;13.98;11.02;;;26.00;75.70;;;;;;5049720;28;20037;-49
2021/10/17 11:58:23;;;;;;;20.90;14.43;;;26.00;76.80;;;;;;5068288;28;20089;-51
2021/10/17 12:00:53;;;;;;;14.73;10.68;;;26.10;75.10;;;;;;4994856;28;20077;-47
2021/10/17 12:03:23;;;;;;;12.43;11.05;;;26.20;75.20;;;;;;5027972;28;20041;-49
2021/10/17 12:05:51;;;;;;;13.10;9.82;;;26.00;76.10;;;;;;5027747;28;20512;-49
2021/10/17 12:08:25;;;;;;;12.88;11.48;;;26.00;76.30;;;;;;5031455;28;20462;-49
2021/10/17 12:11:08;;;;;;;13.93;10.77;;;26.10;78.80;;;;;;5014924;28;20191;-47
2021/10/17 12:13:42;;;;;;;11.75;10.23;;;26.10;77.60;;;;;;5014093;28;20041;-49
2021/10/17 12:16:13;;;;;;;52.33;32.95;;;26.10;76.10;;;;;;5008450;28;20044;-57
2021/10/17 12:18:47;;;;;;;11.80;10.52;;;25.50;75.10;;;;;;5031088;28;20148;-59
2021/10/17 12:21:20;;;;;;;19.48;17.50;;;25.30;76.40;;;;;;5025906;28;20366;-50
2021/10/17 12:23:47;;;;;;;13.65;12.25;;;25.70;77.80;;;;;;5031140;28;20496;-53
2021/10/17 12:26:20;;;;;;;14.48;12.00;;;;;;;;;;5031409;28;20073;-57
2021/10/17 12:29:14;;;;;;;13.35;10.10;;;23.90;88.80;;;;;;5031780;28;20472;-52
2021/10/17 12:31:43;;;;;;;12.10;10.18;;;23.70;78.10;;;;;;5047996;28;20055;-49
2021/10/17 12:34:09;;;;;;;12.45;10.95;;;23.50;79.90;;;;;;5068703;28;20053;-50
2021/10/17 12:36:37;;;;;;;13.43;10.18;;;23.00;78.20;;;;;;5073321;28;20046;-49
2021/10/17 12:39:06;;;;;;;15.60;11.18;;;23.20;79.40;;;;;;5071405;28;20455;-49